Time;durP1;ratioP1;P1;durP2;ratioP2;P2;SDS_P1;SDS_P2;PMS_P1;PMS_P2;Temp;Humidity;BMP_temperature;BMP_pressure;BME280_temperature;BME280_humidity;BME280_pressure;Samples;Min_cycle;Max_cycle;Signal;HPM_P1;HPM_P2
2022/09/24 00:00:56;;;;;;;34.85;26.40;;;13.70;99.90;;;;;;5008597;28;20046;-74
2022/09/24 00:03:23;;;;;;;37.50;26.48;;;13.70;99.90;;;;;;5011003;28;20461;-73
2022/09/24 00:05:50;;;;;;;34.60;26.10;;;13.70;99.90;;;;;;5022855;28;20045;-72
2022/09/24 00:08:17;;;;;;;37.47;27.10;;;13.70;99.90;;;;;;5020881;28;20050;-72
2022/09/24 00:10:45;;;;;;;33.70;26.63;;;13.70;99.90;;;;;;5009173;28;20037;-73
2022/09/24 00:13:13;;;;;;;34.85;27.15;;;13.70;99.90;;;;;;5005438;28;20030;-72
2022/09/24 00:15:44;;;;;;;36.28;27.50;;;13.70;99.90;;;;;;5025152;28;20037;-71
2022/09/24 00:18:11;;;;;;;37.75;28.92;;;13.70;99.90;;;;;;5025375;28;20471;-72
2022/09/24 00:20:38;;;;;;;39.25;30.00;;;13.70;99.90;;;;;;5011528;28;20515;-73
2022/09/24 00:23:06;;;;;;;40.78;30.42;;;13.70;99.90;;;;;;5019428;28;20049;-72
2022/09/24 00:28:16;;;;;;;38.53;30.40;;;13.70;99.90;;;;;;5047247;28;20543;-73
2022/09/24 00:30:43;;;;;;;37.97;30.90;;;13.70;99.90;;;;;;5020831;28;20382;-73
2022/09/24 00:33:10;;;;;;;40.38;31.08;;;13.70;99.90;;;;;;5024048;28;20041;-72
2022/09/24 00:35:37;;;;;;;40.75;31.13;;;13.70;99.90;;;;;;5004822;28;20503;-71
2022/09/24 00:38:05;;;;;;;41.75;33.05;;;13.70;99.90;;;;;;5018753;28;20445;-72
2022/09/24 00:40:34;;;;;;;42.15;31.88;;;13.70;99.90;;;;;;5016767;28;20053;-73
2022/09/24 00:43:00;;;;;;;43.50;33.30;;;13.80;99.90;;;;;;5023113;28;20052;-73
2022/09/24 00:45:30;;;;;;;44.30;34.72;;;13.80;99.90;;;;;;5017341;28;20131;-72
2022/09/24 00:47:57;;;;;;;41.92;33.08;;;13.80;99.90;;;;;;5020575;28;20556;-72
2022/09/24 00:50:25;;;;;;;43.40;34.67;;;13.80;99.90;;;;;;5010537;28;20045;-72
2022/09/24 00:53:14;;;;;;;45.50;35.20;;;13.80;99.90;;;;;;5021039;28;20030;-71
2022/09/24 00:55:43;;;;;;;46.08;34.45;;;13.80;99.90;;;;;;5019816;28;20045;-71
2022/09/24 00:58:09;;;;;;;44.53;35.80;;;13.80;99.90;;;;;;5001962;28;20057;-73
2022/09/24 01:00:43;;;;;;;46.33;34.50;;;13.80;99.90;;;;;;4995615;28;20061;-72
2022/09/24 01:03:15;;;;;;;51.45;37.15;;;13.80;99.90;;;;;;5021319;28;20053;-72
2022/09/24 01:05:41;;;;;;;48.15;36.08;;;13.80;99.90;;;;;;5024170;28;20112;-71
2022/09/24 01:08:12;;;;;;;47.15;35.58;;;13.80;99.90;;;;;;5008230;28;20048;-72
2022/09/24 01:10:50;;;;;;;48.90;34.20;;;13.80;99.90;;;;;;5023389;28;20053;-72
2022/09/24 01:13:39;;;;;;;48.45;36.97;;;13.80;99.90;;;;;;5008789;28;20049;-73
2022/09/24 01:16:20;;;;;;;47.55;35.85;;;13.80;99.90;;;;;;5020594;28;20421;-72
2022/09/24 01:18:56;;;;;;;48.38;35.67;;;13.80;99.90;;;;;;5001001;28;20172;-71
2022/09/24 01:21:39;;;;;;;51.10;36.03;;;13.80;99.90;;;;;;5027341;28;20033;-71
2022/09/24 01:24:16;;;;;;;46.75;35.42;;;13.80;99.90;;;;;;5023749;28;20072;-72
2022/09/24 01:26:59;;;;;;;45.35;35.83;;;13.80;99.90;;;;;;5017246;28;20037;-72
2022/09/24 01:30:04;;;;;;;50.35;36.78;;;13.80;99.90;;;;;;5020022;28;20049;-72
2022/09/24 01:32:39;;;;;;;49.95;36.80;;;13.80;99.90;;;;;;4984640;28;21984;-73
2022/09/24 01:35:14;;;;;;;54.03;38.10;;;13.80;99.90;;;;;;5004949;28;20049;-71
2022/09/24 01:37:44;;;;;;;48.42;37.13;;;13.80;99.90;;;;;;5020758;28;20042;-71
2022/09/24 01:40:11;;;;;;;51.28;37.38;;;13.80;99.90;;;;;;5001341;28;20038;-72
2022/09/24 01:42:41;;;;;;;49.17;38.42;;;13.80;99.90;;;;;;5023992;28;20117;-72
2022/09/24 01:45:08;;;;;;;53.40;39.40;;;14.00;99.90;;;;;;5018446;28;20112;-71
2022/09/24 01:47:38;;;;;;;51.80;38.58;;;13.80;99.90;;;;;;5007223;28;20110;-74
2022/09/24 01:50:06;;;;;;;52.25;38.90;;;13.80;99.90;;;;;;5005313;28;20169;-74
2022/09/24 01:52:39;;;;;;;56.55;40.92;;;13.80;99.90;;;;;;5004707;28;20041;-74
2022/09/24 01:55:09;;;;;;;55.95;40.53;;;13.80;99.90;;;;;;5027932;28;20135;-74
2022/09/24 01:57:41;;;;;;;52.88;40.20;;;13.70;99.90;;;;;;5012225;28;20045;-75
2022/09/24 02:00:12;;;;;;;55.33;41.13;;;13.70;99.90;;;;;;5025491;28;20133;-73
2022/09/24 02:02:47;;;;;;;56.95;40.92;;;13.80;99.90;;;;;;5005085;28;20077;-74
2022/09/24 02:05:36;;;;;;;55.17;40.85;;;13.90;99.90;;;;;;5024888;28;20037;-73
2022/09/24 02:08:13;;;;;;;58.17;42.40;;;13.70;99.90;;;;;;5025557;28;20073;-74
2022/09/24 02:10:53;;;;;;;55.67;40.97;;;13.70;99.90;;;;;;4997042;28;20113;-74
2022/09/24 02:13:23;;;;;;;59.38;42.35;;;13.70;99.90;;;;;;5023381;28;20056;-74
2022/09/24 02:15:52;;;;;;;57.15;42.15;;;13.70;99.90;;;;;;5010759;28;20045;-73
2022/09/24 02:18:22;;;;;;;60.50;43.58;;;13.70;99.90;;;;;;5021383;28;20046;-72
2022/09/24 02:20:50;;;;;;;56.08;42.90;;;13.70;99.90;;;;;;5027066;28;20091;-72
2022/09/24 02:23:17;;;;;;;57.33;42.15;;;13.70;99.90;;;;;;5014341;28;20555;-73
2022/09/24 02:25:52;;;;;;;57.50;41.75;;;13.70;99.90;;;;;;5022940;28;20080;-72
2022/09/24 02:28:18;;;;;;;57.78;43.38;;;13.70;99.90;;;;;;5027079;28;20041;-74
2022/09/24 02:30:56;;;;;;;62.45;46.13;;;13.80;99.90;;;;;;5022218;28;20044;-73
2022/09/24 02:36:08;;;;;;;56.03;42.08;;;13.70;99.90;;;;;;5020819;28;20073;-72
2022/09/24 02:38:34;;;;;;;54.17;39.95;;;13.70;99.90;;;;;;5029461;28;20043;-73
2022/09/24 02:41:00;;;;;;;46.42;34.97;;;13.70;99.90;;;;;;5013214;28;20117;-73
2022/09/24 02:43:28;;;;;;;44.13;30.40;;;13.60;99.90;;;;;;5026645;28;20531;-72
2022/09/24 02:45:54;;;;;;;40.08;31.17;;;13.60;99.90;;;;;;5002704;28;20488;-73
2022/09/24 02:48:20;;;;;;;37.33;27.63;;;13.60;99.90;;;;;;5008508;28;21557;-73
2022/09/24 02:50:45;;;;;;;32.58;25.13;;;13.60;99.90;;;;;;5029537;28;20500;-73
2022/09/24 02:53:11;;;;;;;33.42;25.00;;;13.70;99.90;;;;;;5018116;28;20045;-73
2022/09/24 02:55:36;;;;;;;35.45;28.38;;;13.70;99.90;;;;;;5011291;28;20034;-73
2022/09/24 02:58:02;;;;;;;34.97;28.23;;;13.70;99.90;;;;;;5021140;28;20052;-72
2022/09/24 03:00:28;;;;;;;52.60;37.53;;;13.70;99.90;;;;;;5024680;28;20117;-73
2022/09/24 03:02:54;;;;;;;50.35;37.65;;;13.70;99.90;;;;;;5028222;28;20346;-72
2022/09/24 03:05:20;;;;;;;49.33;37.53;;;13.70;99.90;;;;;;5010005;28;20038;-72
2022/09/24 03:07:46;;;;;;;45.97;35.88;;;13.70;99.90;;;;;;4994957;28;20608;-73
2022/09/24 03:10:14;;;;;;;43.70;32.70;;;13.70;99.90;;;;;;5010766;28;20139;-72
2022/09/24 03:12:42;;;;;;;42.78;30.35;;;13.70;99.90;;;;;;5007568;28;20049;-73
2022/09/24 03:15:09;;;;;;;38.65;29.55;;;13.70;99.90;;;;;;5027407;28;20050;-73
2022/09/24 03:17:35;;;;;;;36.70;27.38;;;13.70;99.90;;;;;;5029196;28;20045;-73
2022/09/24 03:20:01;;;;;;;35.33;27.15;;;13.70;99.90;;;;;;4997559;28;20042;-74
2022/09/24 03:22:27;;;;;;;32.95;25.15;;;13.70;99.90;;;;;;4990959;28;20038;-74
2022/09/24 03:24:53;;;;;;;30.55;21.75;;;13.70;99.90;;;;;;5025910;28;20135;-74
2022/09/24 03:27:21;;;;;;;27.55;20.15;;;13.70;99.90;;;;;;4990701;28;20053;-73
2022/09/24 03:32:32;;;;;;;27.48;20.35;;;13.70;99.90;;;;;;5028799;28;20128;-73
2022/09/24 03:35:00;;;;;;;26.20;19.42;;;13.70;99.90;;;;;;5012160;28;20042;-73
2022/09/24 03:37:25;;;;;;;24.52;18.35;;;13.70;99.90;;;;;;5007037;28;20049;-73
2022/09/24 03:39:51;;;;;;;25.75;17.70;;;13.70;99.90;;;;;;5028970;28;20052;-74
2022/09/24 03:42:17;;;;;;;23.77;16.98;;;13.70;99.90;;;;;;5018466;28;20043;-73
2022/09/24 03:44:43;;;;;;;24.27;17.25;;;13.70;99.90;;;;;;5024364;28;20042;-72
2022/09/24 03:47:09;;;;;;;20.80;15.02;;;13.70;99.90;;;;;;5027290;28;20042;-72
2022/09/24 03:49:34;;;;;;;16.35;10.50;;;13.70;99.90;;;;;;5023983;28;20034;-73
2022/09/24 03:52:00;;;;;;;13.45;8.43;;;13.60;99.90;;;;;;5017267;28;20049;-73
2022/09/24 03:54:26;;;;;;;11.77;7.00;;;13.60;99.90;;;;;;5026161;28;20496;-74
2022/09/24 03:56:51;;;;;;;11.98;6.20;;;14.90;99.90;;;;;;5023738;28;20047;-73
2022/09/24 03:59:17;;;;;;;11.07;5.95;;;13.60;99.90;;;;;;5005689;28;20050;-71
2022/09/24 04:01:43;;;;;;;9.73;5.32;;;13.60;99.90;;;;;;5028674;28;20057;-72
2022/09/24 04:04:09;;;;;;;9.32;5.13;;;13.60;99.90;;;;;;5030137;28;20049;-73
2022/09/24 04:06:35;;;;;;;10.15;5.30;;;13.60;99.90;;;;;;5005225;28;20038;-72
2022/09/24 04:09:01;;;;;;;11.65;6.45;;;13.60;99.90;;;;;;5004800;28;20109;-72
2022/09/24 04:11:26;;;;;;;10.80;6.15;;;13.60;99.90;;;;;;5012717;28;20472;-71
2022/09/24 04:13:52;;;;;;;14.77;9.55;;;13.60;99.90;;;;;;5008642;28;20030;-72
2022/09/24 04:16:18;;;;;;;15.25;10.43;;;13.60;99.90;;;;;;5019705;28;20516;-72
2022/09/24 04:18:43;;;;;;;16.63;10.73;;;13.60;99.90;;;;;;5007295;28;20045;-72
2022/09/24 04:21:09;;;;;;;15.90;11.50;;;13.60;99.90;;;;;;5009127;28;20044;-72
2022/09/24 04:23:35;;;;;;;17.35;12.10;;;13.60;99.90;;;;;;5012279;28;20518;-72
2022/09/24 04:26:01;;;;;;;17.23;12.30;;;13.60;99.90;;;;;;5008281;28;20049;-72
2022/09/24 04:28:28;;;;;;;19.60;14.38;;;13.70;99.90;;;;;;5024114;28;20037;-72
2022/09/24 04:30:54;;;;;;;23.88;17.33;;;13.70;99.90;;;;;;5017001;28;20085;-72
2022/09/24 04:33:20;;;;;;;20.63;15.52;;;13.70;99.90;;;;;;5010034;28;20057;-71
2022/09/24 04:35:46;;;;;;;22.80;16.80;;;13.70;99.90;;;;;;5013345;28;20041;-71
2022/09/24 04:38:12;;;;;;;21.95;16.45;;;13.70;99.90;;;;;;5001785;28;20046;-70
2022/09/24 04:40:38;;;;;;;21.63;15.50;;;13.70;99.90;;;;;;5005582;28;20044;-70
2022/09/24 04:43:10;;;;;;;22.23;17.00;;;13.70;99.90;;;;;;5011852;28;20102;-71
2022/09/24 04:45:36;;;;;;;24.80;17.63;;;13.70;99.90;;;;;;5017488;28;20057;-71
2022/09/24 04:48:02;;;;;;;23.98;16.83;;;13.80;99.90;;;;;;5015235;28;20033;-71
2022/09/24 04:50:32;;;;;;;28.33;19.27;;;13.80;99.90;;;;;;5023513;28;20045;-71
2022/09/24 04:52:58;;;;;;;23.45;17.33;;;13.80;99.90;;;;;;5015659;28;20033;-70
2022/09/24 04:55:24;;;;;;;23.05;17.25;;;13.80;99.90;;;;;;5018482;28;20060;-72
2022/09/24 04:57:50;;;;;;;27.45;18.52;;;13.80;99.90;;;;;;5006980;28;20489;-72
2022/09/24 05:00:19;;;;;;;26.60;17.88;;;13.80;99.90;;;;;;5005137;28;20136;-71
2022/09/24 05:02:45;;;;;;;24.50;17.15;;;14.50;99.90;;;;;;5018816;28;20053;-71
2022/09/24 05:05:12;;;;;;;24.10;17.00;;;13.80;99.90;;;;;;5007565;28;20140;-70
2022/09/24 05:07:38;;;;;;;23.88;15.50;;;13.80;99.90;;;;;;5022352;28;20518;-71
2022/09/24 05:10:05;;;;;;;24.48;14.60;;;13.80;99.90;;;;;;5016890;28;20033;-70
2022/09/24 05:12:32;;;;;;;21.02;12.55;;;13.80;99.90;;;;;;4981424;28;20045;-71
2022/09/24 05:14:58;;;;;;;20.45;11.63;;;13.70;99.90;;;;;;5035200;28;20048;-72
2022/09/24 05:17:24;;;;;;;18.23;10.48;;;13.70;99.90;;;;;;4991049;28;20042;-71
2022/09/24 05:19:49;;;;;;;18.92;7.57;;;13.70;99.90;;;;;;5006805;28;20040;-71
2022/09/24 05:22:19;;;;;;;18.35;5.10;;;13.70;99.90;;;;;;5013385;28;20077;-71
2022/09/24 05:24:44;;;;;;;16.05;3.60;;;13.70;99.90;;;;;;5014807;28;20077;-72
2022/09/24 05:27:10;;;;;;;13.65;3.83;;;13.70;99.90;;;;;;5020033;28;20084;-71
2022/09/24 05:29:42;;;;;;;14.65;3.20;;;13.70;99.90;;;;;;4996125;28;20389;-71
2022/09/24 05:32:16;;;;;;;12.65;2.70;;;13.70;99.90;;;;;;5020232;28;20500;-71
2022/09/24 05:34:43;;;;;;;13.68;2.75;;;13.70;99.90;;;;;;4997231;28;20511;-71
2022/09/24 05:37:10;;;;;;;14.20;2.83;;;13.60;99.90;;;;;;5008203;28;20069;-71
2022/09/24 05:39:36;;;;;;;13.85;2.53;;;13.60;99.90;;;;;;5007641;28;20048;-72
2022/09/24 05:42:06;;;;;;;14.73;2.47;;;13.60;99.90;;;;;;5020945;28;20406;-71
2022/09/24 05:44:32;;;;;;;14.10;2.60;;;13.60;99.90;;;;;;5023438;28;20424;-70
2022/09/24 05:46:58;;;;;;;15.65;3.00;;;13.60;99.90;;;;;;5019501;28;20042;-71
2022/09/24 05:49:24;;;;;;;12.30;2.30;;;13.60;99.90;;;;;;5008476;28;20045;-71
2022/09/24 05:51:52;;;;;;;12.80;2.47;;;13.60;99.90;;;;;;5021336;28;20049;-72
2022/09/24 05:54:21;;;;;;;12.15;2.70;;;13.60;99.90;;;;;;5011291;28;20522;-71
2022/09/24 05:56:46;;;;;;;12.70;2.47;;;13.60;99.90;;;;;;5021701;28;20034;-71
2022/09/24 05:59:12;;;;;;;13.65;2.70;;;13.60;99.90;;;;;;5026656;28;20583;-71
2022/09/24 06:01:38;;;;;;;13.05;2.63;;;13.60;99.90;;;;;;5023378;28;20041;-71
2022/09/24 06:04:04;;;;;;;12.77;2.67;;;13.60;99.90;;;;;;5026263;28;20522;-71
2022/09/24 06:06:29;;;;;;;14.27;2.92;;;13.70;99.90;;;;;;5019725;28;20057;-71
2022/09/24 06:08:55;;;;;;;15.60;2.83;;;13.70;99.90;;;;;;5020146;28;20040;-71
2022/09/24 06:11:21;;;;;;;12.43;2.42;;;13.70;99.90;;;;;;4988803;28;20519;-71
2022/09/24 06:13:50;;;;;;;13.90;2.60;;;13.70;99.90;;;;;;5029732;28;20033;-71
2022/09/24 06:16:17;;;;;;;16.77;2.40;;;13.70;99.90;;;;;;5026519;28;20146;-70
2022/09/24 06:18:43;;;;;;;14.27;2.58;;;13.70;99.90;;;;;;5014933;28;20041;-71
2022/09/24 06:21:18;;;;;;;12.23;2.25;;;13.70;99.90;;;;;;5012335;28;20095;-70
2022/09/24 06:23:44;;;;;;;13.75;2.30;;;13.80;99.90;;;;;;5030680;28;20500;-71
2022/09/24 06:26:12;;;;;;;15.43;2.72;;;13.80;99.90;;;;;;5025216;28;20052;-71
2022/09/24 06:28:38;;;;;;;10.98;2.20;;;13.80;99.90;;;;;;5018235;28;20045;-71
2022/09/24 06:31:10;;;;;;;15.32;2.40;;;13.70;99.90;;;;;;5000188;28;20045;-71
2022/09/24 06:33:36;;;;;;;12.27;2.58;;;13.80;99.90;;;;;;5027197;28;20138;-71
2022/09/24 06:36:06;;;;;;;13.38;2.67;;;13.80;99.90;;;;;;5029740;28;20045;-70
2022/09/24 06:38:35;;;;;;;13.43;2.78;;;13.80;99.90;;;;;;5023840;28;20132;-71
2022/09/24 06:41:03;;;;;;;11.43;2.45;;;13.80;99.90;;;;;;5020832;28;20038;-70
2022/09/24 06:43:29;;;;;;;12.43;2.70;;;13.80;99.90;;;;;;5025912;28;20069;-71
2022/09/24 06:45:57;;;;;;;13.55;2.88;;;13.80;99.90;;;;;;5020011;28;20038;-71
2022/09/24 06:48:23;;;;;;;13.13;2.40;;;14.80;99.90;;;;;;5017963;28;20037;-71
2022/09/24 06:50:48;;;;;;;13.15;2.55;;;13.80;99.90;;;;;;5030024;28;20045;-70
2022/09/24 06:53:14;;;;;;;12.35;2.70;;;13.80;99.90;;;;;;5021648;28;20038;-71
2022/09/24 06:55:41;;;;;;;12.40;2.70;;;13.80;99.90;;;;;;5013297;28;20173;-72
2022/09/24 06:58:06;;;;;;;16.45;2.92;;;13.80;99.90;;;;;;5027872;28;20045;-72
2022/09/24 07:00:33;;;;;;;11.93;2.58;;;13.80;99.90;;;;;;5011312;28;20429;-71
2022/09/24 07:02:59;;;;;;;16.45;3.03;;;13.80;99.90;;;;;;5003596;28;20052;-70
2022/09/24 07:05:25;;;;;;;12.95;2.50;;;13.80;99.90;;;;;;5010356;28;20037;-70
2022/09/24 07:07:51;;;;;;;13.20;2.78;;;13.80;99.90;;;;;;5007101;28;20033;-71
2022/09/24 07:10:17;;;;;;;12.27;2.80;;;13.80;99.90;;;;;;5021492;28;20412;-70
2022/09/24 07:12:42;;;;;;;19.92;3.15;;;13.80;99.90;;;;;;5008132;28;20041;-71
2022/09/24 07:15:09;;;;;;;12.80;2.35;;;14.70;99.90;;;;;;5027595;28;20036;-71
2022/09/24 07:17:35;;;;;;;16.15;2.83;;;13.90;99.90;;;;;;5025517;28;20084;-71
2022/09/24 07:20:04;;;;;;;15.93;2.60;;;;;;;;;;5016225;28;20121;-71
2022/09/24 07:22:30;;;;;;;11.38;2.30;;;13.90;99.90;;;;;;5025922;28;20041;-69
2022/09/24 07:24:55;;;;;;;9.07;2.42;;;13.90;99.90;;;;;;5029821;28;20063;-71
2022/09/24 07:27:21;;;;;;;9.93;2.17;;;13.90;99.90;;;;;;5010403;28;20041;-71
2022/09/24 07:29:48;;;;;;;10.27;2.30;;;13.90;99.90;;;;;;5019191;28;20049;-71
2022/09/24 07:32:17;;;;;;;12.73;2.42;;;13.90;99.90;;;;;;5008671;28;20141;-71
2022/09/24 07:34:44;;;;;;;9.73;2.17;;;13.90;99.90;;;;;;5026162;28;20045;-71
2022/09/24 07:37:10;;;;;;;10.13;1.90;;;13.80;99.90;;;;;;5026856;28;20514;-69
2022/09/24 07:39:35;;;;;;;9.48;2.20;;;13.80;99.90;;;;;;5018279;28;20053;-71
2022/09/24 07:42:01;;;;;;;9.35;2.15;;;13.90;99.90;;;;;;5021288;28;20041;-71
2022/09/24 07:44:28;;;;;;;13.10;2.65;;;13.90;99.90;;;;;;5017395;28;20126;-71
2022/09/24 07:46:54;;;;;;;11.88;2.67;;;13.90;99.90;;;;;;5026288;28;20043;-71
2022/09/24 07:49:23;;;;;;;11.63;2.28;;;13.90;99.90;;;;;;5020879;28;20567;-70
2022/09/24 07:51:49;;;;;;;11.15;2.60;;;13.90;99.90;;;;;;5018922;28;20065;-71
2022/09/24 07:54:15;;;;;;;11.13;2.25;;;13.90;99.90;;;;;;5028473;28;20459;-70
2022/09/24 07:56:44;;;;;;;14.90;2.40;;;14.00;99.90;;;;;;5027233;28;20052;-71
2022/09/24 07:59:10;;;;;;;15.63;2.47;;;13.90;99.90;;;;;;5025569;28;20115;-70
2022/09/24 08:01:36;;;;;;;11.32;2.53;;;14.00;99.90;;;;;;5025267;28;20512;-70
2022/09/24 08:04:03;;;;;;;13.00;2.35;;;14.00;99.90;;;;;;4993710;28;20646;-70
2022/09/24 08:06:32;;;;;;;18.50;3.22;;;14.00;99.90;;;;;;4999102;28;20555;-70
2022/09/24 08:08:58;;;;;;;11.20;2.60;;;14.00;99.90;;;;;;5021157;28;20057;-71
2022/09/24 08:11:24;;;;;;;12.10;2.72;;;14.00;99.90;;;;;;5022775;28;20511;-71
2022/09/24 08:13:50;;;;;;;11.93;2.47;;;14.00;99.90;;;;;;5020643;28;20117;-71
2022/09/24 08:16:16;;;;;;;14.57;2.70;;;14.00;99.90;;;;;;5007395;28;20134;-71
2022/09/24 08:18:43;;;;;;;15.07;2.60;;;14.10;99.90;;;;;;5011172;28;20507;-71
2022/09/24 08:21:10;;;;;;;13.48;2.65;;;14.10;99.90;;;;;;5006780;28;20029;-71
2022/09/24 08:23:40;;;;;;;9.25;2.00;;;14.10;99.90;;;;;;5025098;28;20148;-71
2022/09/24 08:26:06;;;;;;;15.25;2.30;;;14.10;99.90;;;;;;5021907;28;20096;-70
2022/09/24 08:28:33;;;;;;;14.02;3.22;;;14.10;99.90;;;;;;5016775;28;20042;-72
2022/09/24 08:31:00;;;;;;;13.73;2.90;;;14.20;99.90;;;;;;5024841;28;20070;-70
2022/09/24 08:33:27;;;;;;;13.45;2.55;;;14.20;99.90;;;;;;5020825;28;20041;-71
2022/09/24 08:35:53;;;;;;;15.50;2.58;;;14.20;99.90;;;;;;5025687;28;20053;-71
2022/09/24 08:38:19;;;;;;;16.48;2.95;;;14.30;99.90;;;;;;5022230;28;20044;-73
2022/09/24 08:41:03;;;;;;;18.80;2.88;;;14.30;99.90;;;;;;5002678;28;20041;-73
2022/09/24 08:43:28;;;;;;;;;;;14.40;99.90;;;;;;5022666;28;20538;-72
2022/09/24 08:48:48;;;;;;;12.75;2.22;;;14.40;99.90;;;;;;5021599;28;20042;-71
2022/09/24 08:51:19;;;;;;;14.20;3.05;;;14.50;99.90;;;;;;5033864;28;20091;-71
2022/09/24 08:53:58;;;;;;;19.42;4.88;;;14.10;99.90;;;;;;5006032;28;20104;-72
2022/09/24 08:56:35;;;;;;;19.23;6.70;;;14.50;99.90;;;;;;5012879;28;20120;-72
2022/09/24 08:59:23;;;;;;;12.55;4.03;;;14.60;99.90;;;;;;5027140;28;21371;-72
2022/09/24 09:01:51;;;;;;;14.02;2.92;;;14.50;99.90;;;;;;5030395;28;20041;-72
2022/09/24 09:04:36;;;;;;;12.82;2.83;;;14.60;99.90;;;;;;5027792;28;20625;-73
2022/09/24 09:07:21;;;;;;;12.35;2.50;;;14.60;99.90;;;;;;5012592;28;20079;-72
2022/09/24 09:10:02;;;;;;;13.48;4.70;;;14.60;99.90;;;;;;5033386;28;20092;-72
2022/09/24 09:12:35;;;;;;;12.35;3.00;;;14.60;99.90;;;;;;5025168;28;20648;-72
2022/09/24 09:15:16;;;;;;;9.45;2.47;;;14.60;99.90;;;;;;5026162;28;20283;-72
2022/09/24 09:17:50;;;;;;;11.95;2.70;;;14.60;99.90;;;;;;5025038;28;20415;-72
2022/09/24 09:20:20;;;;;;;13.52;3.08;;;14.60;99.90;;;;;;5025053;28;20317;-72
2022/09/24 09:22:52;;;;;;;9.25;2.53;;;14.60;99.90;;;;;;5021485;28;20049;-71
2022/09/24 09:25:30;;;;;;;12.75;2.45;;;14.60;99.90;;;;;;5028326;28;20042;-71
2022/09/24 09:28:16;;;;;;;11.27;2.22;;;14.90;99.90;;;;;;5009898;28;20049;-71
2022/09/24 09:30:53;;;;;;;18.35;9.18;;;14.60;99.90;;;;;;5012155;28;20199;-72
2022/09/24 09:33:59;;;;;;;17.58;7.97;;;14.60;99.90;;;;;;5028313;28;20045;-72
2022/09/24 09:36:55;;;;;;;13.70;3.42;;;14.60;99.90;;;;;;5059191;28;20404;-72
2022/09/24 09:39:29;;;;;;;10.95;2.40;;;14.60;99.90;;;;;;5022060;28;20471;-73
2022/09/24 09:42:06;;;;;;;11.85;2.60;;;14.50;99.90;;;;;;5025591;28;20052;-72
2022/09/24 09:44:42;;;;;;;10.15;2.92;;;14.50;99.90;;;;;;5028266;28;20132;-72
2022/09/24 09:47:35;;;;;;;12.13;2.55;;;14.40;99.90;;;;;;5027378;28;20077;-72
2022/09/24 09:50:09;;;;;;;;;;;14.30;99.90;;;;;;5011249;28;20057;-72
2022/09/24 09:52:38;;;;;;;13.90;4.60;;;14.30;99.90;;;;;;5027970;28;19948;-72
2022/09/24 09:55:07;;;;;;;15.82;3.65;;;14.20;99.90;;;;;;5022664;28;20034;-72
2022/09/24 09:57:35;;;;;;;8.73;2.40;;;14.20;99.90;;;;;;4989752;28;20075;-72
2022/09/24 10:00:03;;;;;;;13.45;3.47;;;14.20;99.90;;;;;;5037139;28;20058;-72
2022/09/24 10:02:32;;;;;;;11.95;2.30;;;14.20;99.90;;;;;;5009045;28;20456;-72
2022/09/24 10:05:01;;;;;;;9.05;1.90;;;14.20;99.90;;;;;;5019700;28;20121;-73
2022/09/24 10:07:27;;;;;;;11.88;3.55;;;14.20;99.90;;;;;;5019010;28;20041;-73
2022/09/24 10:10:18;;;;;;;20.20;12.60;;;14.20;99.90;;;;;;5015672;28;20041;-73
2022/09/24 10:12:43;;;;;;;12.45;3.42;;;14.20;99.90;;;;;;5014724;28;20045;-72
2022/09/24 10:15:17;;;;;;;11.23;2.40;;;14.20;99.90;;;;;;5028847;28;20044;-74
2022/09/24 10:17:49;;;;;;;9.85;2.00;;;14.20;99.90;;;;;;5014326;28;20056;-74
2022/09/24 10:20:26;;;;;;;9.13;2.00;;;14.20;99.90;;;;;;5022495;28;20444;-72
2022/09/24 10:23:09;;;;;;;9.27;2.10;;;14.20;99.90;;;;;;5024998;28;20045;-74
2022/09/24 10:25:35;;;;;;;14.93;2.15;;;14.20;99.90;;;;;;5022783;28;20042;-72
2022/09/24 10:31:13;;;;;;;9.02;1.92;;;14.30;99.90;;;;;;5020233;28;20509;-74
2022/09/24 10:33:48;;;;;;;12.45;2.35;;;14.30;99.90;;;;;;5021098;28;20030;-74
2022/09/24 10:36:25;;;;;;;12.45;2.47;;;14.30;99.90;;;;;;5007134;28;20045;-73
2022/09/24 10:39:12;;;;;;;10.38;2.20;;;14.30;99.90;;;;;;5017442;28;20205;-72
2022/09/24 10:41:46;;;;;;;9.52;2.28;;;14.30;99.90;;;;;;5006961;28;20108;-74
2022/09/24 10:44:12;;;;;;;10.02;2.65;;;14.30;99.90;;;;;;5017366;28;20033;-72
2022/09/24 10:47:25;;;;;;;11.25;2.40;;;14.30;99.90;;;;;;5018126;28;20137;-74
2022/09/24 10:50:23;;;;;;;9.90;2.42;;;14.30;99.90;;;;;;5005220;28;20053;-72
2022/09/24 10:53:07;;;;;;;6.85;2.00;;;14.30;99.90;;;;;;5022086;28;20380;-72
2022/09/24 10:55:46;;;;;;;8.35;2.10;;;14.30;99.90;;;;;;4995788;28;20041;-72
2022/09/24 10:58:24;;;;;;;12.05;2.10;;;14.30;99.90;;;;;;5008274;28;20033;-73
2022/09/24 11:01:15;;;;;;;8.70;1.70;;;14.30;99.90;;;;;;5012298;28;20056;-72
2022/09/24 11:03:59;;;;;;;8.95;1.77;;;14.30;99.90;;;;;;5015111;28;20148;-74
2022/09/24 11:07:02;;;;;;;9.60;2.38;;;14.30;99.90;;;;;;5033653;28;20052;-74
2022/09/24 11:09:56;;;;;;;9.23;2.40;;;14.30;99.90;;;;;;5028846;28;20053;-71
2022/09/24 11:13:01;;;;;;;12.27;2.35;;;14.30;99.90;;;;;;5019818;28;20048;-72
2022/09/24 11:16:07;;;;;;;8.90;2.78;;;14.30;99.90;;;;;;4997126;28;20050;-73
2022/09/24 11:19:01;;;;;;;12.63;3.25;;;14.30;99.90;;;;;;5029249;28;20041;-72
2022/09/24 11:22:05;;;;;;;10.57;2.20;;;14.30;99.90;;;;;;5025714;28;20398;-73
2022/09/24 11:24:36;;;;;;;9.93;3.00;;;14.30;99.90;;;;;;5022254;28;20050;-73
2022/09/24 11:27:32;;;;;;;11.15;2.10;;;14.30;99.90;;;;;;5010059;28;20049;-73
2022/09/24 11:30:07;;;;;;;12.93;2.33;;;14.40;99.90;;;;;;5030107;28;20435;-73
2022/09/24 11:32:54;;;;;;;10.65;1.83;;;14.40;99.90;;;;;;5021371;28;20041;-72
2022/09/24 11:35:41;;;;;;;8.75;1.88;;;14.40;99.90;;;;;;5028121;28;20041;-73
2022/09/24 11:38:44;;;;;;;9.68;2.15;;;14.40;99.90;;;;;;5030419;28;20041;-71
2022/09/24 11:41:24;;;;;;;7.85;1.98;;;14.40;99.90;;;;;;4996202;28;20045;-73
2022/09/24 11:44:17;;;;;;;9.75;2.00;;;14.40;99.90;;;;;;5027381;28;20041;-71
2022/09/24 11:47:11;;;;;;;12.57;2.60;;;14.50;99.90;;;;;;5017781;28;20049;-73
2022/09/24 11:49:42;;;;;;;11.50;1.98;;;14.50;99.90;;;;;;4993436;28;20084;-72
2022/09/24 11:52:21;;;;;;;13.32;3.33;;;14.60;99.90;;;;;;5009758;28;20033;-72
2022/09/24 11:55:17;;;;;;;10.70;2.40;;;14.60;99.90;;;;;;5007345;28;20046;-72
2022/09/24 11:57:56;;;;;;;11.50;2.58;;;14.70;99.90;;;;;;5012720;28;20049;-71
2022/09/24 12:00:28;;;;;;;13.15;4.53;;;14.70;99.90;;;;;;5007420;28;20140;-73
2022/09/24 12:03:09;;;;;;;9.02;2.05;;;14.70;99.90;;;;;;4995480;28;20575;-71
2022/09/24 12:05:45;;;;;;;11.23;2.40;;;14.60;99.90;;;;;;5021443;28;20504;-73
2022/09/24 12:08:16;;;;;;;13.48;4.32;;;14.50;99.90;;;;;;5012816;28;20060;-72
2022/09/24 12:11:05;;;;;;;9.95;2.10;;;14.50;99.90;;;;;;5026413;28;20121;-73
2022/09/24 12:13:59;;;;;;;10.38;2.40;;;13.90;99.90;;;;;;5013568;28;20042;-72
2022/09/24 12:16:35;;;;;;;9.95;2.90;;;14.40;99.90;;;;;;4998293;28;20121;-73
2022/09/24 12:19:13;;;;;;;10.27;3.55;;;14.40;99.90;;;;;;5018492;28;20079;-72
2022/09/24 12:21:42;;;;;;;10.05;2.13;;;14.40;99.90;;;;;;5001174;28;20499;-71
2022/09/24 12:24:40;;;;;;;12.80;3.85;;;14.30;99.90;;;;;;5017465;28;20042;-73
2022/09/24 12:27:12;;;;;;;12.18;4.10;;;14.30;99.90;;;;;;5020306;28;20048;-71
2022/09/24 12:33:01;;;;;;;9.43;2.85;;;14.30;99.90;;;;;;5029295;28;20041;-72
2022/09/24 12:35:40;;;;;;;9.20;2.03;;;14.10;99.90;;;;;;5014690;28;20052;-72
2022/09/24 12:38:29;;;;;;;9.82;2.50;;;14.30;99.90;;;;;;4996271;28;20078;-71
2022/09/24 12:41:00;;;;;;;10.98;1.83;;;14.20;99.90;;;;;;5015956;28;20042;-72
2022/09/24 12:43:36;;;;;;;8.07;2.00;;;14.20;99.90;;;;;;5014563;28;20056;-71
2022/09/24 12:46:08;;;;;;;8.23;1.70;;;14.20;99.90;;;;;;5025918;28;20072;-72
2022/09/24 12:48:37;;;;;;;10.70;1.80;;;14.30;99.90;;;;;;4998223;28;20512;-72
2022/09/24 12:51:09;;;;;;;7.43;1.65;;;14.20;99.90;;;;;;5005781;28;20300;-72
2022/09/24 12:53:37;;;;;;;7.10;1.70;;;14.30;99.90;;;;;;5014736;28;20492;-71
2022/09/24 12:56:05;;;;;;;9.80;1.70;;;14.30;99.90;;;;;;5028597;28;20531;-72
2022/09/24 12:58:42;;;;;;;6.47;1.70;;;14.30;99.90;;;;;;5012390;28;20045;-73
2022/09/24 13:01:24;;;;;;;7.35;1.83;;;14.20;99.90;;;;;;5017372;28;20079;-71
2022/09/24 13:04:13;;;;;;;7.60;1.83;;;14.20;99.90;;;;;;5002934;28;20121;-71
2022/09/24 13:06:40;;;;;;;8.10;2.22;;;14.30;99.90;;;;;;5018789;28;20099;-71
2022/09/24 13:09:40;;;;;;;10.50;1.90;;;14.30;99.90;;;;;;5004585;28;20045;-72
2022/09/24 13:12:28;;;;;;;9.23;2.55;;;14.30;99.90;;;;;;5015793;28;20044;-71
2022/09/24 13:14:57;;;;;;;8.18;2.25;;;14.30;99.90;;;;;;5013874;28;20120;-72
2022/09/24 13:17:23;;;;;;;10.15;2.33;;;14.20;99.90;;;;;;5021273;28;20041;-71